sensor_id;sensor_type;location;lat;lon;timestamp;pressure;altitude;pressure_sealevel;temperature;humidity
58473;BME280;44775;51.564;5.460;2023-04-15T00:00:24;100485.34;;;7.22;81.26
58473;BME280;44775;51.564;5.460;2023-04-15T00:02:49;100492.31;;;7.23;79.28
58473;BME280;44775;51.564;5.460;2023-04-15T00:05:15;100486.00;;;7.24;81.73
58473;BME280;44775;51.564;5.460;2023-04-15T00:07:40;100487.31;;;7.20;81.82
58473;BME280;44775;51.564;5.460;2023-04-15T00:10:05;100487.63;;;7.17;78.81
58473;BME280;44775;51.564;5.460;2023-04-15T00:12:31;100486.56;;;7.10;82.36
58473;BME280;44775;51.564;5.460;2023-04-15T00:14:56;100481.03;;;7.03;86.02
58473;BME280;44775;51.564;5.460;2023-04-15T00:17:22;100478.16;;;6.97;83.89
58473;BME280;44775;51.564;5.460;2023-04-15T00:19:48;100480.59;;;6.90;84.39
58473;BME280;44775;51.564;5.460;2023-04-15T00:22:13;100485.41;;;6.86;84.76
58473;BME280;44775;51.564;5.460;2023-04-15T00:24:38;100480.22;;;6.85;84.47
58473;BME280;44775;51.564;5.460;2023-04-15T00:27:04;100484.34;;;6.79;85.41
58473;BME280;44775;51.564;5.460;2023-04-15T00:29:29;100482.28;;;6.73;87.63
58473;BME280;44775;51.564;5.460;2023-04-15T00:31:55;100481.06;;;6.68;87.02
58473;BME280;44775;51.564;5.460;2023-04-15T00:34:21;100479.41;;;6.67;87.38
58473;BME280;44775;51.564;5.460;2023-04-15T00:36:46;100476.06;;;6.65;86.92
58473;BME280;44775;51.564;5.460;2023-04-15T00:39:11;100481.53;;;6.63;86.36
58473;BME280;44775;51.564;5.460;2023-04-15T00:41:37;100478.06;;;6.62;86.76
58473;BME280;44775;51.564;5.460;2023-04-15T00:44:04;100478.88;;;6.63;88.71
58473;BME280;44775;51.564;5.460;2023-04-15T00:46:30;100479.56;;;6.65;87.32
58473;BME280;44775;51.564;5.460;2023-04-15T00:48:57;100482.75;;;6.69;86.61
58473;BME280;44775;51.564;5.460;2023-04-15T00:51:22;100477.75;;;6.66;85.81
58473;BME280;44775;51.564;5.460;2023-04-15T00:53:48;100474.25;;;6.65;87.30
58473;BME280;44775;51.564;5.460;2023-04-15T00:56:14;100478.72;;;6.65;87.89
58473;BME280;44775;51.564;5.460;2023-04-15T00:58:39;100485.84;;;6.64;83.54
58473;BME280;44775;51.564;5.460;2023-04-15T01:01:05;100483.06;;;6.66;82.46
58473;BME280;44775;51.564;5.460;2023-04-15T01:03:30;100478.88;;;6.63;85.77
58473;BME280;44775;51.564;5.460;2023-04-15T01:05:55;100474.88;;;6.59;85.92
58473;BME280;44775;51.564;5.460;2023-04-15T01:08:27;100472.88;;;6.61;81.22
58473;BME280;44775;51.564;5.460;2023-04-15T01:10:53;100465.38;;;6.56;86.06
58473;BME280;44775;51.564;5.460;2023-04-15T01:13:18;100471.22;;;6.60;86.62
58473;BME280;44775;51.564;5.460;2023-04-15T01:15:45;100473.03;;;6.59;85.82
58473;BME280;44775;51.564;5.460;2023-04-15T01:18:10;100469.47;;;6.51;85.92
58473;BME280;44775;51.564;5.460;2023-04-15T01:20:36;100474.09;;;6.49;85.45
58473;BME280;44775;51.564;5.460;2023-04-15T01:23:01;100464.69;;;6.54;87.71
58473;BME280;44775;51.564;5.460;2023-04-15T01:25:33;100470.00;;;6.54;86.47
58473;BME280;44775;51.564;5.460;2023-04-15T01:27:58;100473.66;;;6.53;86.16
58473;BME280;44775;51.564;5.460;2023-04-15T01:30:24;100481.91;;;6.50;87.70
58473;BME280;44775;51.564;5.460;2023-04-15T01:32:51;100480.38;;;6.48;86.80
58473;BME280;44775;51.564;5.460;2023-04-15T01:35:16;100474.41;;;6.46;88.12
58473;BME280;44775;51.564;5.460;2023-04-15T01:37:42;100474.84;;;6.41;86.63
58473;BME280;44775;51.564;5.460;2023-04-15T01:40:07;100478.78;;;6.37;90.26
58473;BME280;44775;51.564;5.460;2023-04-15T01:42:34;100468.34;;;6.35;87.14
58473;BME280;44775;51.564;5.460;2023-04-15T01:44:59;100476.59;;;6.32;89.60
58473;BME280;44775;51.564;5.460;2023-04-15T01:47:24;100476.34;;;6.26;89.33
58473;BME280;44775;51.564;5.460;2023-04-15T01:49:50;100472.34;;;6.22;87.99
58473;BME280;44775;51.564;5.460;2023-04-15T01:52:15;100475.81;;;6.22;91.29
58473;BME280;44775;51.564;5.460;2023-04-15T01:54:40;100483.09;;;6.20;89.38
58473;BME280;44775;51.564;5.460;2023-04-15T01:57:06;100469.44;;;6.15;90.19
58473;BME280;44775;51.564;5.460;2023-04-15T01:59:31;100473.53;;;6.09;91.09
58473;BME280;44775;51.564;5.460;2023-04-15T02:01:57;100474.81;;;6.05;89.27
58473;BME280;44775;51.564;5.460;2023-04-15T02:04:22;100476.75;;;6.03;90.48
58473;BME280;44775;51.564;5.460;2023-04-15T02:06:47;100469.97;;;6.01;93.46
58473;BME280;44775;51.564;5.460;2023-04-15T02:09:12;100475.56;;;5.98;91.91
58473;BME280;44775;51.564;5.460;2023-04-15T02:11:38;100474.28;;;5.92;93.42
58473;BME280;44775;51.564;5.460;2023-04-15T02:14:03;100479.88;;;5.89;91.82
58473;BME280;44775;51.564;5.460;2023-04-15T02:16:29;100479.34;;;5.85;89.97
58473;BME280;44775;51.564;5.460;2023-04-15T02:18:55;100482.44;;;5.81;91.28
58473;BME280;44775;51.564;5.460;2023-04-15T02:21:20;100490.53;;;5.79;92.25
58473;BME280;44775;51.564;5.460;2023-04-15T02:23:45;100492.50;;;5.77;93.53
58473;BME280;44775;51.564;5.460;2023-04-15T02:26:12;100493.88;;;5.81;89.63
58473;BME280;44775;51.564;5.460;2023-04-15T02:28:37;100488.03;;;5.78;89.83
58473;BME280;44775;51.564;5.460;2023-04-15T02:31:06;100489.69;;;5.79;91.02
58473;BME280;44775;51.564;5.460;2023-04-15T02:33:32;100489.38;;;5.91;89.07
58473;BME280;44775;51.564;5.460;2023-04-15T02:35:57;100488.16;;;5.76;94.70
58473;BME280;44775;51.564;5.460;2023-04-15T02:38:23;100488.84;;;5.88;94.68
58473;BME280;44775;51.564;5.460;2023-04-15T02:40:48;100499.03;;;5.93;93.50
58473;BME280;44775;51.564;5.460;2023-04-15T02:43:14;100498.88;;;5.94;94.51
58473;BME280;44775;51.564;5.460;2023-04-15T02:45:41;100499.84;;;5.93;93.65
58473;BME280;44775;51.564;5.460;2023-04-15T02:48:07;100504.59;;;5.89;94.93
58473;BME280;44775;51.564;5.460;2023-04-15T02:50:32;100506.16;;;5.82;93.36
58473;BME280;44775;51.564;5.460;2023-04-15T02:52:58;100509.84;;;5.72;97.14
58473;BME280;44775;51.564;5.460;2023-04-15T02:55:25;100516.00;;;5.62;94.83
58473;BME280;44775;51.564;5.460;2023-04-15T02:57:50;100513.25;;;5.54;96.21
58473;BME280;44775;51.564;5.460;2023-04-15T03:00:15;100513.81;;;5.48;97.87
58473;BME280;44775;51.564;5.460;2023-04-15T03:02:40;100514.25;;;5.43;96.75
58473;BME280;44775;51.564;5.460;2023-04-15T03:05:10;100516.03;;;5.43;96.21
58473;BME280;44775;51.564;5.460;2023-04-15T03:07:35;100509.09;;;5.42;98.47
58473;BME280;44775;51.564;5.460;2023-04-15T03:10:00;100509.25;;;5.40;99.83
58473;BME280;44775;51.564;5.460;2023-04-15T03:12:26;100511.03;;;5.40;96.23
58473;BME280;44775;51.564;5.460;2023-04-15T03:14:52;100510.75;;;5.43;97.78
58473;BME280;44775;51.564;5.460;2023-04-15T03:17:17;100514.53;;;5.40;96.69
58473;BME280;44775;51.564;5.460;2023-04-15T03:19:42;100517.19;;;5.40;97.25
58473;BME280;44775;51.564;5.460;2023-04-15T03:22:08;100516.19;;;5.41;96.59
58473;BME280;44775;51.564;5.460;2023-04-15T03:24:33;100522.34;;;5.42;95.67
58473;BME280;44775;51.564;5.460;2023-04-15T03:26:58;100522.03;;;5.45;93.75
58473;BME280;44775;51.564;5.460;2023-04-15T03:29:23;100524.72;;;5.35;96.76
58473;BME280;44775;51.564;5.460;2023-04-15T03:31:48;100523.34;;;5.31;98.10
58473;BME280;44775;51.564;5.460;2023-04-15T03:34:14;100523.34;;;5.31;98.76
58473;BME280;44775;51.564;5.460;2023-04-15T03:36:39;100531.19;;;5.23;97.47
58473;BME280;44775;51.564;5.460;2023-04-15T03:39:04;100530.19;;;5.14;100.00
58473;BME280;44775;51.564;5.460;2023-04-15T03:41:29;100529.50;;;5.12;99.45
58473;BME280;44775;51.564;5.460;2023-04-15T03:43:55;100534.38;;;5.07;100.00
58473;BME280;44775;51.564;5.460;2023-04-15T03:46:20;100533.84;;;5.04;100.00
58473;BME280;44775;51.564;5.460;2023-04-15T03:48:45;100538.69;;;4.98;100.00
58473;BME280;44775;51.564;5.460;2023-04-15T03:51:11;100544.44;;;4.94;99.22
58473;BME280;44775;51.564;5.460;2023-04-15T03:53:36;100548.34;;;4.90;100.00
58473;BME280;44775;51.564;5.460;2023-04-15T03:56:01;100555.00;;;4.84;100.00
58473;BME280;44775;51.564;5.460;2023-04-15T03:58:26;100551.38;;;4.85;100.00
58473;BME280;44775;51.564;5.460;2023-04-15T04:00:51;100560.47;;;4.83;100.00
58473;BME280;44775;51.564;5.460;2023-04-15T04:03:17;100556.41;;;4.88;98.99
58473;BME280;44775;51.564;5.460;2023-04-15T04:05:42;100558.38;;;4.86;100.00
58473;BME280;44775;51.564;5.460;2023-04-15T04:08:08;100568.09;;;4.95;99.47
58473;BME280;44775;51.564;5.460;2023-04-15T04:10:33;100570.63;;;4.97;98.77
58473;BME280;44775;51.564;5.460;2023-04-15T04:12:59;100575.66;;;4.90;100.00
58473;BME280;44775;51.564;5.460;2023-04-15T04:15:24;100579.84;;;4.93;100.00
58473;BME280;44775;51.564;5.460;2023-04-15T04:17:49;100586.34;;;4.89;100.00
58473;BME280;44775;51.564;5.460;2023-04-15T04:20:15;100582.03;;;4.88;100.00
58473;BME280;44775;51.564;5.460;2023-04-15T04:22:40;100588.31;;;4.87;100.00
58473;BME280;44775;51.564;5.460;2023-04-15T04:25:06;100595.84;;;4.91;100.00
58473;BME280;44775;51.564;5.460;2023-04-15T04:27:32;100598.66;;;4.90;100.00
58473;BME280;44775;51.564;5.460;2023-04-15T04:29:57;100598.38;;;4.93;100.00
58473;BME280;44775;51.564;5.460;2023-04-15T04:32:22;100599.31;;;4.92;100.00
58473;BME280;44775;51.564;5.460;2023-04-15T04:34:48;100601.97;;;4.92;100.00
58473;BME280;44775;51.564;5.460;2023-04-15T04:37:13;100617.59;;;4.95;100.00
58473;BME280;44775;51.564;5.460;2023-04-15T04:39:38;100608.81;;;4.94;100.00
58473;BME280;44775;51.564;5.460;2023-04-15T04:42:04;100613.97;;;4.96;100.00
58473;BME280;44775;51.564;5.460;2023-04-15T04:44:29;100624.16;;;5.01;100.00
58473;BME280;44775;51.564;5.460;2023-04-15T04:46:54;100626.50;;;4.94;100.00
58473;BME280;44775;51.564;5.460;2023-04-15T04:49:19;100629.16;;;4.94;100.00
58473;BME280;44775;51.564;5.460;2023-04-15T04:51:44;100631.25;;;4.90;100.00
58473;BME280;44775;51.564;5.460;2023-04-15T04:54:11;100631.25;;;4.90;100.00
58473;BME280;44775;51.564;5.460;2023-04-15T04:56:36;100633.19;;;4.88;100.00
58473;BME280;44775;51.564;5.460;2023-04-15T04:59:03;100639.59;;;4.86;100.00
58473;BME280;44775;51.564;5.460;2023-04-15T05:01:28;100647.97;;;4.91;100.00
58473;BME280;44775;51.564;5.460;2023-04-15T05:03:53;100643.25;;;5.04;100.00
58473;BME280;44775;51.564;5.460;2023-04-15T05:06:18;100639.88;;;4.92;100.00
58473;BME280;44775;51.564;5.460;2023-04-15T05:08:44;100652.31;;;5.02;100.00
58473;BME280;44775;51.564;5.460;2023-04-15T05:11:11;100650.19;;;4.95;100.00
58473;BME280;44775;51.564;5.460;2023-04-15T05:13:37;100649.38;;;4.95;100.00
58473;BME280;44775;51.564;5.460;2023-04-15T05:16:03;100666.50;;;4.91;100.00
58473;BME280;44775;51.564;5.460;2023-04-15T05:18:28;100665.53;;;5.02;100.00
58473;BME280;44775;51.564;5.460;2023-04-15T05:20:54;100670.69;;;4.93;100.00
58473;BME280;44775;51.564;5.460;2023-04-15T05:23:19;100678.63;;;4.93;100.00
58473;BME280;44775;51.564;5.460;2023-04-15T05:25:44;100680.06;;;5.07;100.00
58473;BME280;44775;51.564;5.460;2023-04-15T05:28:10;100681.84;;;4.97;100.00
58473;BME280;44775;51.564;5.460;2023-04-15T05:30:35;100693.41;;;5.06;100.00
58473;BME280;44775;51.564;5.460;2023-04-15T05:33:00;100696.28;;;5.33;100.00
58473;BME280;44775;51.564;5.460;2023-04-15T05:35:25;100695.13;;;5.16;100.00
58473;BME280;44775;51.564;5.460;2023-04-15T05:37:51;100692.19;;;5.19;100.00
58473;BME280;44775;51.564;5.460;2023-04-15T05:40:16;100701.56;;;5.24;100.00
58473;BME280;44775;51.564;5.460;2023-04-15T05:42:41;100697.22;;;5.32;100.00
58473;BME280;44775;51.564;5.460;2023-04-15T05:45:06;100702.69;;;5.31;100.00
58473;BME280;44775;51.564;5.460;2023-04-15T05:47:34;100709.53;;;5.33;100.00
58473;BME280;44775;51.564;5.460;2023-04-15T05:49:59;100713.00;;;5.34;100.00
58473;BME280;44775;51.564;5.460;2023-04-15T05:52:24;100720.78;;;5.35;100.00
58473;BME280;44775;51.564;5.460;2023-04-15T05:54:50;100722.88;;;5.32;100.00
58473;BME280;44775;51.564;5.460;2023-04-15T05:57:15;100722.47;;;5.36;100.00
58473;BME280;44775;51.564;5.460;2023-04-15T05:59:40;100728.47;;;5.38;100.00
58473;BME280;44775;51.564;5.460;2023-04-15T06:02:06;100731.84;;;5.40;100.00
58473;BME280;44775;51.564;5.460;2023-04-15T06:04:31;100733.34;;;5.43;100.00
58473;BME280;44775;51.564;5.460;2023-04-15T06:06:56;100737.00;;;5.52;100.00
58473;BME280;44775;51.564;5.460;2023-04-15T06:09:22;100740.06;;;5.57;100.00
58473;BME280;44775;51.564;5.460;2023-04-15T06:11:47;100746.63;;;5.62;100.00
58473;BME280;44775;51.564;5.460;2023-04-15T06:14:12;100753.91;;;5.60;100.00
58473;BME280;44775;51.564;5.460;2023-04-15T06:16:37;100750.00;;;5.64;100.00
58473;BME280;44775;51.564;5.460;2023-04-15T06:19:02;100750.13;;;5.73;100.00
58473;BME280;44775;51.564;5.460;2023-04-15T06:21:28;100758.34;;;5.89;100.00
58473;BME280;44775;51.564;5.460;2023-04-15T06:23:53;100764.22;;;6.12;100.00
58473;BME280;44775;51.564;5.460;2023-04-15T06:26:18;100771.63;;;6.18;100.00
58473;BME280;44775;51.564;5.460;2023-04-15T06:28:44;100770.22;;;6.14;100.00
58473;BME280;44775;51.564;5.460;2023-04-15T06:31:09;100770.44;;;6.50;100.00
58473;BME280;44775;51.564;5.460;2023-04-15T06:33:34;100788.94;;;6.79;100.00
58473;BME280;44775;51.564;5.460;2023-04-15T06:35:59;100788.53;;;7.01;100.00
58473;BME280;44775;51.564;5.460;2023-04-15T06:38:24;100792.53;;;7.43;100.00
58473;BME280;44775;51.564;5.460;2023-04-15T06:40:50;100799.88;;;7.76;100.00
58473;BME280;44775;51.564;5.460;2023-04-15T06:43:15;100806.06;;;8.03;100.00
58473;BME280;44775;51.564;5.460;2023-04-15T06:45:40;100809.72;;;8.38;99.77
58473;BME280;44775;51.564;5.460;2023-04-15T06:48:06;100808.66;;;8.74;98.26
58473;BME280;44775;51.564;5.460;2023-04-15T06:50:31;100811.31;;;9.09;96.85
58473;BME280;44775;51.564;5.460;2023-04-15T06:52:56;100823.78;;;9.42;94.87
58473;BME280;44775;51.564;5.460;2023-04-15T06:55:21;100833.69;;;9.66;93.19
58473;BME280;44775;51.564;5.460;2023-04-15T06:57:47;100833.41;;;9.86;90.48
58473;BME280;44775;51.564;5.460;2023-04-15T07:00:12;100838.75;;;10.02;88.66
58473;BME280;44775;51.564;5.460;2023-04-15T07:02:37;100839.13;;;10.48;86.75
58473;BME280;44775;51.564;5.460;2023-04-15T07:05:03;100845.81;;;10.36;88.51
58473;BME280;44775;51.564;5.460;2023-04-15T07:07:28;100843.16;;;10.44;78.89
58473;BME280;44775;51.564;5.460;2023-04-15T07:09:54;100850.13;;;10.70;81.44
58473;BME280;44775;51.564;5.460;2023-04-15T07:12:19;100846.59;;;10.94;76.59
58473;BME280;44775;51.564;5.460;2023-04-15T07:14:44;100846.25;;;11.44;79.74
58473;BME280;44775;51.564;5.460;2023-04-15T07:17:10;100861.53;;;11.27;80.63
58473;BME280;44775;51.564;5.460;2023-04-15T07:19:36;100864.50;;;11.41;80.12
58473;BME280;44775;51.564;5.460;2023-04-15T07:22:01;100858.47;;;11.30;79.33
58473;BME280;44775;51.564;5.460;2023-04-15T07:24:26;100858.91;;;11.50;77.43
58473;BME280;44775;51.564;5.460;2023-04-15T07:26:52;100873.31;;;11.80;78.28
58473;BME280;44775;51.564;5.460;2023-04-15T07:29:18;100877.00;;;12.11;73.54
58473;BME280;44775;51.564;5.460;2023-04-15T07:31:43;100877.72;;;12.04;69.78
58473;BME280;44775;51.564;5.460;2023-04-15T07:34:08;100889.94;;;12.30;74.31
58473;BME280;44775;51.564;5.460;2023-04-15T07:36:34;100893.44;;;12.53;72.12
58473;BME280;44775;51.564;5.460;2023-04-15T07:38:59;100893.41;;;12.39;70.01
58473;BME280;44775;51.564;5.460;2023-04-15T07:41:27;100898.44;;;12.34;71.74
58473;BME280;44775;51.564;5.460;2023-04-15T07:43:52;100899.13;;;12.73;70.59
58473;BME280;44775;51.564;5.460;2023-04-15T07:46:17;100911.75;;;12.65;69.37
58473;BME280;44775;51.564;5.460;2023-04-15T07:48:42;100902.94;;;12.79;69.00
58473;BME280;44775;51.564;5.460;2023-04-15T07:51:07;100911.19;;;12.92;67.24
58473;BME280;44775;51.564;5.460;2023-04-15T07:53:34;100914.97;;;12.83;66.77
58473;BME280;44775;51.564;5.460;2023-04-15T07:56:00;100910.75;;;13.04;66.74
58473;BME280;44775;51.564;5.460;2023-04-15T07:58:25;100915.50;;;13.16;66.27
58473;BME280;44775;51.564;5.460;2023-04-15T08:00:51;100924.28;;;13.25;66.94
58473;BME280;44775;51.564;5.460;2023-04-15T08:03:16;100923.84;;;13.51;63.99
58473;BME280;44775;51.564;5.460;2023-04-15T08:05:42;100929.59;;;13.33;63.17
58473;BME280;44775;51.564;5.460;2023-04-15T08:08:07;100927.91;;;13.32;63.43
58473;BME280;44775;51.564;5.460;2023-04-15T08:10:32;100934.09;;;13.33;64.22
58473;BME280;44775;51.564;5.460;2023-04-15T08:12:58;100939.13;;;13.51;61.54
58473;BME280;44775;51.564;5.460;2023-04-15T08:15:23;100939.22;;;13.57;61.97
58473;BME280;44775;51.564;5.460;2023-04-15T08:17:48;100951.16;;;13.40;61.69
58473;BME280;44775;51.564;5.460;2023-04-15T08:20:14;100946.53;;;13.34;61.43
58473;BME280;44775;51.564;5.460;2023-04-15T08:22:39;100952.06;;;13.32;61.87
58473;BME280;44775;51.564;5.460;2023-04-15T08:25:05;100958.91;;;13.35;62.42
58473;BME280;44775;51.564;5.460;2023-04-15T08:27:30;100967.94;;;13.57;61.44
58473;BME280;44775;51.564;5.460;2023-04-15T08:29:56;100970.97;;;13.54;61.71
58473;BME280;44775;51.564;5.460;2023-04-15T08:32:21;100964.19;;;13.73;60.54
58473;BME280;44775;51.564;5.460;2023-04-15T08:34:46;100975.72;;;14.17;57.26
58473;BME280;44775;51.564;5.460;2023-04-15T08:37:12;100966.97;;;14.30;56.43
58473;BME280;44775;51.564;5.460;2023-04-15T08:39:37;100982.97;;;14.38;56.81
58473;BME280;44775;51.564;5.460;2023-04-15T08:42:02;100980.91;;;14.19;57.46
58473;BME280;44775;51.564;5.460;2023-04-15T08:44:31;100991.22;;;14.52;56.79
58473;BME280;44775;51.564;5.460;2023-04-15T08:46:59;100989.22;;;14.60;56.82
58473;BME280;44775;51.564;5.460;2023-04-15T08:49:25;101006.31;;;14.74;56.66
58473;BME280;44775;51.564;5.460;2023-04-15T08:51:51;101004.28;;;14.98;54.69
58473;BME280;44775;51.564;5.460;2023-04-15T08:54:16;101016.16;;;14.82;55.46
58473;BME280;44775;51.564;5.460;2023-04-15T08:56:42;101022.41;;;14.68;56.63
58473;BME280;44775;51.564;5.460;2023-04-15T08:59:08;101026.19;;;15.16;52.48
58473;BME280;44775;51.564;5.460;2023-04-15T09:01:33;101031.25;;;15.04;52.73
58473;BME280;44775;51.564;5.460;2023-04-15T09:03:59;101025.63;;;14.99;53.57
58473;BME280;44775;51.564;5.460;2023-04-15T09:06:26;101036.94;;;14.95;53.99
58473;BME280;44775;51.564;5.460;2023-04-15T09:08:52;101043.59;;;14.77;55.10
58473;BME280;44775;51.564;5.460;2023-04-15T09:11:17;101040.75;;;15.00;53.73
58473;BME280;44775;51.564;5.460;2023-04-15T09:13:43;101047.91;;;14.93;54.97
58473;BME280;44775;51.564;5.460;2023-04-15T09:16:08;101054.41;;;14.99;54.93
58473;BME280;44775;51.564;5.460;2023-04-15T09:18:35;101053.66;;;15.11;53.81
58473;BME280;44775;51.564;5.460;2023-04-15T09:21:10;101064.81;;;15.30;53.11
58473;BME280;44775;51.564;5.460;2023-04-15T09:24:18;101067.41;;;15.45;52.75
58473;BME280;44775;51.564;5.460;2023-04-15T09:26:34;101063.72;;;15.24;53.70
58473;BME280;44775;51.564;5.460;2023-04-15T09:29:07;101075.09;;;15.20;54.85
58473;BME280;44775;51.564;5.460;2023-04-15T09:31:33;101075.38;;;15.31;53.80
58473;BME280;44775;51.564;5.460;2023-04-15T09:33:58;101083.84;;;15.28;51.85
58473;BME280;44775;51.564;5.460;2023-04-15T09:36:24;101081.78;;;15.30;52.51
58473;BME280;44775;51.564;5.460;2023-04-15T09:38:56;101087.13;;;15.24;52.40
58473;BME280;44775;51.564;5.460;2023-04-15T09:41:22;101087.41;;;15.85;49.38
58473;BME280;44775;51.564;5.460;2023-04-15T09:43:47;101088.91;;;15.88;49.94
58473;BME280;44775;51.564;5.460;2023-04-15T09:46:12;101099.66;;;15.88;51.15
58473;BME280;44775;51.564;5.460;2023-04-15T09:48:37;101097.19;;;16.21;49.29
58473;BME280;44775;51.564;5.460;2023-04-15T09:51:03;101096.34;;;16.68;46.41
58473;BME280;44775;51.564;5.460;2023-04-15T09:53:28;101099.16;;;16.47;49.40
58473;BME280;44775;51.564;5.460;2023-04-15T09:55:54;101097.88;;;16.43;49.54
58473;BME280;44775;51.564;5.460;2023-04-15T09:58:21;101095.38;;;16.89;47.00
58473;BME280;44775;51.564;5.460;2023-04-15T10:00:47;101099.25;;;16.73;48.58
58473;BME280;44775;51.564;5.460;2023-04-15T10:03:18;101108.13;;;17.29;43.61
58473;BME280;44775;51.564;5.460;2023-04-15T10:05:44;101114.78;;;16.58;48.26
58473;BME280;44775;51.564;5.460;2023-04-15T10:08:10;101108.84;;;16.83;46.53
58473;BME280;44775;51.564;5.460;2023-04-15T10:10:36;101108.56;;;16.64;47.06
58473;BME280;44775;51.564;5.460;2023-04-15T10:13:01;101114.47;;;16.40;49.45
58473;BME280;44775;51.564;5.460;2023-04-15T10:15:27;101115.31;;;16.40;49.88
58473;BME280;44775;51.564;5.460;2023-04-15T10:17:52;101111.84;;;16.12;51.39
58473;BME280;44775;51.564;5.460;2023-04-15T10:20:19;101106.63;;;16.03;51.92
58473;BME280;44775;51.564;5.460;2023-04-15T10:22:46;101115.16;;;17.10;45.70
58473;BME280;44775;51.564;5.460;2023-04-15T10:25:12;101115.94;;;16.97;48.09
58473;BME280;44775;51.564;5.460;2023-04-15T10:27:39;101118.72;;;17.30;47.16
58473;BME280;44775;51.564;5.460;2023-04-15T10:30:06;101120.19;;;17.73;44.45
58473;BME280;44775;51.564;5.460;2023-04-15T10:32:31;101118.50;;;17.65;45.75
58473;BME280;44775;51.564;5.460;2023-04-15T10:34:56;101128.91;;;17.75;45.24
58473;BME280;44775;51.564;5.460;2023-04-15T10:37:43;101137.03;;;17.88;43.63
58473;BME280;44775;51.564;5.460;2023-04-15T10:40:23;101140.13;;;17.91;45.00
58473;BME280;44775;51.564;5.460;2023-04-15T10:42:51;101139.72;;;18.01;42.53
58473;BME280;44775;51.564;5.460;2023-04-15T10:45:18;101138.72;;;17.89;42.31
58473;BME280;44775;51.564;5.460;2023-04-15T10:47:43;101135.59;;;17.79;44.02
58473;BME280;44775;51.564;5.460;2023-04-15T10:50:08;101139.13;;;17.86;42.67
58473;BME280;44775;51.564;5.460;2023-04-15T10:52:34;101139.91;;;18.20;43.86
58473;BME280;44775;51.564;5.460;2023-04-15T10:55:03;101142.53;;;18.46;44.43
58473;BME280;44775;51.564;5.460;2023-04-15T10:57:39;101136.81;;;18.68;43.43
58473;BME280;44775;51.564;5.460;2023-04-15T11:02:52;101146.97;;;18.85;41.51
58473;BME280;44775;51.564;5.460;2023-04-15T11:05:18;101151.34;;;18.15;44.01
58473;BME280;44775;51.564;5.460;2023-04-15T11:12:55;101148.66;;;18.02;44.55
58473;BME280;44775;51.564;5.460;2023-04-15T11:15:34;101143.88;;;17.70;46.01
58473;BME280;44775;51.564;5.460;2023-04-15T11:18:10;101159.03;;;18.25;42.29
58473;BME280;44775;51.564;5.460;2023-04-15T11:20:36;101156.97;;;18.13;44.83
58473;BME280;44775;51.564;5.460;2023-04-15T11:23:01;101152.00;;;18.04;42.20
58473;BME280;44775;51.564;5.460;2023-04-15T11:25:27;101146.81;;;18.02;44.88
58473;BME280;44775;51.564;5.460;2023-04-15T11:27:53;101157.34;;;18.37;44.27
58473;BME280;44775;51.564;5.460;2023-04-15T11:30:19;101155.81;;;18.54;41.75
58473;BME280;44775;51.564;5.460;2023-04-15T11:32:48;101153.63;;;18.83;43.29
58473;BME280;44775;51.564;5.460;2023-04-15T11:35:13;101158.50;;;19.06;42.58
58473;BME280;44775;51.564;5.460;2023-04-15T11:37:38;101160.78;;;18.64;42.45
58473;BME280;44775;51.564;5.460;2023-04-15T11:40:03;101166.69;;;18.41;41.99
58473;BME280;44775;51.564;5.460;2023-04-15T11:42:30;101168.66;;;17.81;45.68
58473;BME280;44775;51.564;5.460;2023-04-15T11:45:05;101168.59;;;17.54;47.48
58473;BME280;44775;51.564;5.460;2023-04-15T11:47:30;101172.56;;;17.45;45.28
58473;BME280;44775;51.564;5.460;2023-04-15T11:49:55;101172.56;;;17.52;45.58
58473;BME280;44775;51.564;5.460;2023-04-15T11:52:20;101173.41;;;17.52;47.34
58473;BME280;44775;51.564;5.460;2023-04-15T11:54:46;101179.22;;;17.56;46.06
58473;BME280;44775;51.564;5.460;2023-04-15T11:57:12;101183.38;;;17.71;44.86
58473;BME280;44775;51.564;5.460;2023-04-15T11:59:41;101179.41;;;17.54;47.09
58473;BME280;44775;51.564;5.460;2023-04-15T12:02:10;101180.06;;;17.56;45.06
58473;BME280;44775;51.564;5.460;2023-04-15T12:04:36;101187.91;;;17.38;45.80
58473;BME280;44775;51.564;5.460;2023-04-15T12:07:04;101182.09;;;17.41;43.98
58473;BME280;44775;51.564;5.460;2023-04-15T12:09:31;101194.75;;;17.34;45.23
58473;BME280;44775;51.564;5.460;2023-04-15T12:12:01;101202.03;;;17.27;49.04
58473;BME280;44775;51.564;5.460;2023-04-15T12:14:27;101191.25;;;17.40;47.40
58473;BME280;44775;51.564;5.460;2023-04-15T12:16:56;101190.66;;;17.71;48.89
58473;BME280;44775;51.564;5.460;2023-04-15T12:19:26;101197.75;;;18.05;45.06
58473;BME280;44775;51.564;5.460;2023-04-15T12:21:53;101201.88;;;18.21;45.67
58473;BME280;44775;51.564;5.460;2023-04-15T12:24:21;101206.66;;;18.32;44.18
58473;BME280;44775;51.564;5.460;2023-04-15T12:29:13;101216.66;;;18.18;43.42
58473;BME280;44775;51.564;5.460;2023-04-15T12:31:46;101226.25;;;18.14;44.00
58473;BME280;44775;51.564;5.460;2023-04-15T12:34:11;101230.75;;;18.60;44.54
58473;BME280;44775;51.564;5.460;2023-04-15T12:36:36;101242.19;;;18.76;42.18
58473;BME280;44775;51.564;5.460;2023-04-15T12:39:02;101237.00;;;18.61;42.46
58473;BME280;44775;51.564;5.460;2023-04-15T12:41:28;101241.16;;;18.63;44.49
58473;BME280;44775;51.564;5.460;2023-04-15T12:43:53;101243.47;;;18.53;43.73
58473;BME280;44775;51.564;5.460;2023-04-15T12:46:18;101245.38;;;18.33;43.13
58473;BME280;44775;51.564;5.460;2023-04-15T12:48:44;101242.78;;;18.84;42.08
58473;BME280;44775;51.564;5.460;2023-04-15T12:51:09;101248.09;;;19.11;42.91
58473;BME280;44775;51.564;5.460;2023-04-15T12:53:34;101250.84;;;19.04;43.82
58473;BME280;44775;51.564;5.460;2023-04-15T12:56:00;101259.81;;;18.98;43.64